Aérodrome :
LOGIN :

S'inscrire | Disclaimer

   EN    FR    IT 

 










Légende :    VFR   VFR Marginal   IFR   IFR Intensif   IFR Très Intensif
Visi : 
Plafond : 
>= 8 km
>= 3000ft
5 à 8 km
1000 à 3000 ft
1500m à 5 km
500 à 1000 ft
800 à 1500m
200 à 500 ft
< 800m
< 200 ft
Symboles :   Orages  Brouillard  Fortes neiges  Fortes précipitations  Vent > 20 kt
SIGMETs :   Divers  Orages  Givrage  Turbulence  Onde Orograph.  Cendres Volcan.







- Altitude de l'aérodrome : 359 ft
- Code IATA : BVA
- Voir les cartes d'approche


LFOB - Beauvais

DERNIER METAR :
  • 191000Z AUTO 26007KT 9999 BKN016 08/04 Q1022 NOSIG

METARs EXPIRÉS :
  • 190930Z AUTO 22006KT 190V250 9999 FEW017 08/04 Q1022 NOSIG
  • 190900Z AUTO 20004KT 180V240 9999 FEW015 07/04 Q1022 TEMPO 4000 BR BKN012
  • 190830Z AUTO 26005KT 9999 OVC015 06/04 Q1022 TEMPO 4000 BR BKN012
  • 190800Z AUTO 27005KT 9999 OVC014 06/04 Q1021 TEMPO 4000 BR
  • 190730Z AUTO 26008KT 9999 BKN015 06/04 Q1021 TEMPO 4000 BR BKN012

TAF TAF LFOB
Valide du 19 à 06h jusqu'au 20 à 06h UTC


190500Z 1906/2006 27007KT 9999 SCT030
TEMPO 1906/1910 4000 BR BKN012
BECMG 2000/2003 4000 BR
PROB30
TEMPO 2003/2006 0500 FG VV///
ATIS : +33 3 44 11 49 28
Pas de NOTAMs connus pour ce terrain.
1 SIGMET publié pour la FIR Paris (LFFF) :
 
Turbulence forte
LFFF SIGMET 2 VALID 190800/191200 LFPW
LFFF PARIS FIR/UIR SEV TURB FCST WI N4715 E00130 - N4715 W00015 - N4800 W00015 - N4900 E00100 - N4830 E00230 - N4715 E00130 FL200/300 MOV E 10KT WKN=



MET'MAP, la Météo Aéronautique d'un coup d'oeil ! - Copyright ORBIFLY Décembre 2007 - Disclaimer

ORBIFLY MET'MAP TEAM :

Programmation & Développement : Alexandra Zaïnal
Conception & Développement : Baudouin d'Aumeries
Co-Programmation & Développement : Marc-Olivier Méhu
Soutien technique & logistique : Manuel Goepfert

Contact : metmap@orbifly.com




SOURCES & CREDITS :

   NOAA